首页
METAR-TAF:

METAR-TAF

机场 :

Pryor Field Regional Airport

迪凯特, 阿拉巴马州, 美国

纬度: 34-39-29N, 经度: 086-56-36W, 海拔: 180米

当前天气观测

该预报发布于37分钟前的05:53 UTC
静风
温度 22°C
湿度 88%
气压 1019 hPa
能見度: 12.9公里
天空无云

METAR: KDCU 270553Z AUTO 00000KT 8SM CLR 22/20 A3008 RMK AO2 SLP178 T02220200 10317 20222 403440194 58001

时间: 01:30 (06:30 UTC)


TAF: 丢失

超过4000个机场的气象观测和天气预报(METAR&TAF报告)。

可查询的气象台以黄色和红色小点在地图上表示。

将鼠标移到小点上方,可查看气象台名称。

然后点击查看天气观测和预报。

如需切换地图:点击带黑十字的绿色按钮放大地图;点击带横线的绿色按钮缩小地图;或者点击绿色箭头查看邻近地区的地图。


METAR-TAF: